Main page
METAR-TAF:

METAR-TAF

Airports :

Granada, Spain

Base Aérea de Armilla

latitude: 37-08N, longitude: 003-38-08W, elevation: 700 m

Current weather observation

The report was made 1 hour and 11 minutes ago, at 06:00 UTC
Wind 4 kt from the South
Temperature 3°C
Humidity 75%
Pressure 1018 hPa
Visibility 10 km or more
no clouds below 1500 m and no cumulonimbus

METAR: LEGA 220600Z 18004KT CAVOK 03/M01 Q1018

Time: 08:11 (07:11 UTC)

Forecast

The report was made 2 hours and 11 minutes ago, at 05:00 UTC
Forecast valid from 22 at 06 UTC to 22 at 15 UTC
Wind 1 kt from variable directions
Visibility 10 km or more
no clouds below 1500 m and no cumulonimbus

TAF: LEGA 220500Z 2206/2215 VRB01KT CAVOK

Weather observations and forecasts of more than 4000 airports (METAR and TAF reports).

The available stations are represented by yellow and red dots on the map.

Hover mouse over dot to see the name of the station.

Then click to see weather observations and forecasts.

To change the map : click on the green buttons with a black cross to zoom in, on the green button with a dash to zoom out, or on the green arrows for adjacent maps.


METAR-TAF: